Time;durP1;ratioP1;P1;durP2;ratioP2;P2;SDS_P1;SDS_P2;PMS_P1;PMS_P2;Temp;Humidity;BMP_temperature;BMP_pressure;BME280_temperature;BME280_humidity;BME280_pressure;Samples;Min_cycle;Max_cycle;Signal;HPM_P1;HPM_P2
2022/06/21 00:03:24;;;;;;;7.50;3.60;;;;;;;13.92;75.84;99166.59;214571;1276;142319;-66
2022/06/21 00:08:32;;;;;;;6.70;4.70;;;;;;;13.84;75.47;99170.72;214682;1276;140832;-65
2022/06/21 00:13:37;;;;;;;6.90;4.30;;;;;;;13.73;75.85;99173.84;215923;1276;151096;-66
2022/06/21 00:18:43;;;;;;;5.80;4.50;;;;;;;13.64;75.51;99166.56;214776;1277;140326;-67
2022/06/21 00:23:50;;;;;;;5.40;4.90;;;;;;;13.56;75.41;99163.13;213634;1275;141008;-67
2022/06/21 00:28:57;;;;;;;4.70;4.30;;;;;;;13.50;75.63;99155.41;214450;1276;142109;-67
2022/06/21 00:34:12;;;;;;;6.90;4.00;;;;;;;13.47;75.74;99139.52;212991;1276;141087;-66
2022/06/21 00:39:18;;;;;;;11.10;4.50;;;;;;;13.34;75.58;99137.00;213916;1276;141328;-66
2022/06/21 00:44:40;;;;;;;5.70;4.70;;;;;;;13.22;75.68;99135.91;214703;1276;142426;-67
2022/06/21 00:49:50;;;;;;;5.00;4.30;;;;;;;13.09;75.53;99132.03;213480;1276;152048;-67
2022/06/21 00:55:03;;;;;;;4.60;4.20;;;;;;;13.02;76.00;99131.11;214511;1276;141324;-67
2022/06/21 01:00:32;;;;;;;5.60;4.80;;;;;;;12.96;75.78;99130.55;213787;1276;141073;-67
2022/06/21 01:05:40;;;;;;;10.60;6.10;;;;;;;12.87;75.93;99146.16;213856;1276;140433;-66
2022/06/21 01:10:50;;;;;;;5.30;4.80;;;;;;;12.75;76.17;99153.35;214557;1275;140864;-67
2022/06/21 01:15:57;;;;;;;7.10;5.60;;;;;;;12.72;76.20;99154.23;213396;1276;143338;-66
2022/06/21 01:21:03;;;;;;;7.30;5.50;;;;;;;12.65;76.25;99148.17;212958;1277;142206;-66
2022/06/21 01:26:28;;;;;;;6.10;4.60;;;;;;;12.59;76.44;99139.81;214682;1276;142280;-66
2022/06/21 01:31:33;;;;;;;7.50;6.80;;;;;;;12.49;76.52;99136.46;213318;1274;142035;-65
2022/06/21 01:36:39;;;;;;;9.60;6.40;;;;;;;12.46;76.79;99137.95;214158;1276;141449;-66
2022/06/21 01:41:50;;;;;;;7.90;6.50;;;;;;;12.42;76.84;99134.30;213878;1276;143188;-66
2022/06/21 01:46:58;;;;;;;5.50;4.90;;;;;;;12.39;77.10;99134.34;215832;1276;144388;-67
2022/06/21 01:52:10;;;;;;;8.00;5.20;;;;;;;12.44;77.24;99143.34;216004;1274;142114;-67
2022/06/21 01:57:15;;;;;;;11.70;5.80;;;;;;;12.49;77.41;99134.77;215773;1275;140867;-67
2022/06/21 02:02:34;;;;;;;6.10;5.60;;;;;;;12.48;77.61;99133.52;215909;1276;140836;-68
2022/06/21 02:07:47;;;;;;;9.40;4.40;;;;;;;12.47;77.38;99133.09;215458;1274;141770;-67
2022/06/21 02:12:56;;;;;;;5.80;5.00;;;;;;;12.42;77.53;99142.69;214246;1277;141128;-67
2022/06/21 02:18:03;;;;;;;7.70;5.50;;;;;;;12.37;77.13;99139.94;214646;1276;638313;-67
2022/06/21 02:23:07;;;;;;;3.90;3.50;;;;;;;12.29;77.40;99143.25;213427;1276;141873;-66
2022/06/21 02:28:14;;;;;;;8.40;4.30;;;;;;;12.22;77.52;99145.27;214458;1275;140554;-67
2022/06/21 02:33:22;;;;;;;4.70;3.50;;;;;;;12.20;77.29;99149.02;214031;1276;141806;-66
2022/06/21 02:38:33;;;;;;;3.80;3.30;;;;;;;12.20;77.28;99141.41;214216;1276;141070;-66
2022/06/21 02:44:02;;;;;;;4.30;3.90;;;;;;;12.14;76.92;99140.21;214578;1277;141716;-67
2022/06/21 02:49:17;;;;;;;4.20;3.30;;;;;;;12.13;77.13;99134.80;213797;1277;143034;-67
2022/06/21 02:54:35;;;;;;;3.30;2.40;;;;;;;12.10;76.70;99134.25;213450;1277;141000;-66
2022/06/21 02:59:42;;;;;;;3.10;2.90;;;;;;;12.06;76.60;99138.82;214105;1277;141465;-66
2022/06/21 03:04:54;;;;;;;6.70;3.10;;;;;;;12.07;76.75;99132.52;213857;1277;141751;-66
2022/06/21 03:09:59;;;;;;;1.90;1.70;;;;;;;12.09;76.69;99134.89;213714;1276;141328;-66
2022/06/21 03:15:09;;;;;;;3.10;2.00;;;;;;;12.06;76.51;99136.84;213547;1276;139905;-66
2022/06/21 03:20:17;;;;;;;2.70;2.50;;;;;;;11.97;76.08;99145.87;214627;1277;140481;-68
2022/06/21 03:25:30;;;;;;;2.10;1.90;;;;;;;11.88;76.00;99151.70;214130;1276;141769;-65
2022/06/21 03:30:36;;;;;;;3.30;2.50;;;;;;;11.89;76.27;99158.55;214142;1277;141296;-67
2022/06/21 03:35:41;;;;;;;2.20;2.00;;;;;;;11.92;76.17;99161.92;213290;1276;141641;-67
2022/06/21 03:46:19;;;;;;;4.00;2.50;;;;;;;12.00;76.25;99162.39;215378;1276;140963;-66
2022/06/21 03:51:29;;;;;;;4.80;2.30;;;;;;;12.03;75.98;99157.07;214584;1276;140777;-66
2022/06/21 03:56:37;;;;;;;4.00;2.50;;;;;;;12.07;76.01;99152.50;216011;1276;140215;-67
2022/06/21 04:02:17;;;;;;;2.40;1.90;;;;;;;12.16;75.82;99153.84;216074;1276;142059;-66
2022/06/21 04:07:27;;;;;;;7.40;3.80;;;;;;;12.32;75.81;99159.52;215661;1276;141169;-66
2022/06/21 04:12:42;;;;;;;2.60;2.50;;;;;;;12.34;75.63;99163.34;216082;1276;140503;-68
2022/06/21 04:18:18;;;;;;;4.10;2.60;;;;;;;12.39;75.50;99169.19;215891;1276;140307;-65
2022/06/21 04:23:53;;;;;;;11.10;2.10;;;;;;;12.50;75.28;99166.09;214756;1276;140646;-64
2022/06/21 04:29:33;;;;;;;6.40;3.20;;;;;;;12.56;75.19;99159.58;214165;1276;141102;-65
2022/06/21 04:34:51;;;;;;;3.20;2.90;;;;;;;12.63;75.24;99171.48;214064;1278;140780;-65
2022/06/21 04:40:22;;;;;;;5.50;3.20;;;;;;;12.61;75.05;99182.97;213790;1274;141610;-64
2022/06/21 04:45:32;;;;;;;3.70;2.60;;;;;;;12.62;75.14;99186.55;213233;1276;141293;-65
2022/06/21 04:50:44;;;;;;;2.50;2.10;;;;;;;12.69;74.84;99188.52;214459;1276;139784;-65
2022/06/21 04:56:04;;;;;;;4.10;2.80;;;;;;;12.75;74.67;99185.50;214133;1278;140995;-68
2022/06/21 05:06:33;;;;;;;5.00;2.70;;;;;;;12.81;74.56;99186.95;214261;1276;142082;-66
2022/06/21 05:11:37;;;;;;;2.30;2.10;;;;;;;13.20;74.13;99185.44;213151;1277;140294;-65
2022/06/21 05:16:42;;;;;;;3.80;2.20;;;;;;;14.16;72.88;99180.15;214420;1276;141184;-65
2022/06/21 05:21:58;;;;;;;2.90;2.30;;;;;;;14.28;72.74;99177.35;213941;1277;140345;-65
2022/06/21 05:27:23;;;;;;;2.40;2.30;;;;;;;14.12;72.30;99185.36;213368;1277;142542;-65
2022/06/21 05:32:39;;;;;;;2.70;2.40;;;;;;;13.76;72.18;99188.80;214048;1276;140916;-65
2022/06/21 05:38:21;;;;;;;2.20;2.00;;;;;;;13.72;72.27;99187.14;214850;1276;141342;-66
2022/06/21 05:43:38;;;;;;;2.00;1.90;;;;;;;13.71;71.87;99193.84;213480;1276;141689;-66
2022/06/21 05:48:45;;;;;;;1.80;1.70;;;;;;;13.83;71.34;99199.71;214215;1275;140500;-66
2022/06/21 05:53:55;;;;;;;;;;;;;;;14.73;70.66;99196.84;215424;1276;140818;-67
2022/06/21 05:59:04;;;;;;;2.00;1.90;;;;;;;15.38;70.04;99187.63;216418;1276;127933;-66
2022/06/21 06:04:31;;;;;;;4.10;1.70;;;;;;;15.72;69.14;99182.83;215645;1276;141929;-66
2022/06/21 06:09:40;;;;;;;;;;;;;;;15.53;68.67;99184.73;215285;1276;140828;-65
2022/06/21 06:15:11;;;;;;;2.00;1.90;;;;;;;15.19;68.64;99185.88;216489;1276;127766;-66
2022/06/21 06:20:25;;;;;;;4.90;2.00;;;;;;;14.85;68.13;99188.32;215048;1276;141730;-65
2022/06/21 06:25:39;;;;;;;1.40;1.40;;;;;;;14.68;68.51;99183.73;215186;1276;162214;-65
2022/06/21 06:31:19;;;;;;;3.50;1.80;;;;;;;14.59;68.29;99185.86;214395;1276;141456;-65
2022/06/21 06:36:37;;;;;;;2.40;1.50;;;;;;;14.57;68.63;99180.55;214481;1274;139876;-65
2022/06/21 06:42:12;;;;;;;2.10;2.00;;;;;;;14.71;68.58;99180.80;213916;1276;140807;-65
2022/06/21 06:47:38;;;;;;;2.40;1.90;;;;;;;14.89;68.27;99188.23;214440;1276;141011;-64
2022/06/21 06:53:06;;;;;;;2.80;1.80;;;;;;;15.31;68.01;99186.87;214005;1276;139861;-65
2022/06/21 06:58:39;;;;;;;2.00;1.90;;;;;;;15.44;67.29;99187.48;213421;1276;140309;-66
2022/06/21 07:04:02;;;;;;;1.60;1.30;;;;;;;15.26;67.17;99187.93;214738;1276;140165;-65
2022/06/21 07:09:44;;;;;;;1.50;1.40;;;;;;;15.01;66.98;99198.70;213888;1276;140362;-65
2022/06/21 07:14:50;;;;;;;1.50;1.40;;;;;;;15.41;67.41;99201.30;212974;1278;141702;-64
2022/06/21 07:19:55;;;;;;;1.70;1.60;;;;;;;16.02;66.60;99208.96;213731;1276;208323;-64
2022/06/21 07:25:27;;;;;;;1.60;1.50;;;;;;;15.74;65.52;99214.58;213339;1276;139867;-65
2022/06/21 07:30:39;;;;;;;2.70;1.50;;;;;;;15.30;65.65;99215.71;214729;1276;140460;-65
2022/06/21 07:35:49;;;;;;;1.70;1.60;;;;;;;15.05;66.09;99222.94;214192;1276;140731;-65
2022/06/21 07:40:56;;;;;;;3.20;1.30;;;;;;;14.89;66.27;99218.84;214478;1277;140543;-67
2022/06/21 07:46:01;;;;;;;;;;;;;;;14.74;66.47;99225.23;215250;1277;140905;-67
2022/06/21 07:51:14;;;;;;;1.70;1.60;;;;;;;14.59;66.57;99237.90;215501;1276;126635;-66
2022/06/21 07:56:24;;;;;;;7.30;2.50;;;;;;;14.62;66.98;99237.45;214712;1277;140172;-67
2022/06/21 08:07:06;;;;;;;5.70;1.20;;;;;;;15.59;66.89;99238.00;215635;1276;140473;-66
2022/06/21 08:12:15;;;;;;;1.40;1.30;;;;;;;16.33;66.83;99233.82;215949;1277;141218;-66
2022/06/21 08:17:42;;;;;;;1.40;1.30;;;;;;;17.75;66.95;99236.48;215849;1276;140623;-66
2022/06/21 08:23:38;;;;;;;2.80;1.90;;;;;;;18.94;65.45;99237.88;214582;1277;139995;-67
2022/06/21 08:28:56;;;;;;;1.40;1.30;;;;;;;19.53;63.25;99243.20;214271;1276;140484;-67
2022/06/21 08:34:18;;;;;;;1.00;1.00;;;;;;;18.91;61.52;99243.04;214565;1276;139927;-66
2022/06/21 08:39:34;;;;;;;2.80;1.60;;;;;;;18.15;61.28;99243.67;213589;1277;141611;-66
2022/06/21 08:50:44;;;;;;;4.60;1.50;;;;;;;17.56;61.98;99242.77;214008;1277;139996;-66
2022/06/21 08:56:15;;;;;;;1.20;1.10;;;;;;;17.78;61.72;99250.05;214657;1277;142130;-66
2022/06/21 09:01:33;;;;;;;1.50;1.40;;;;;;;18.08;61.17;99247.67;213353;1277;139656;-66
2022/06/21 09:06:54;;;;;;;1.70;1.60;;;;;;;18.12;60.71;99252.58;213896;1277;139958;-65
2022/06/21 09:12:20;;;;;;;3.10;1.40;;;;;;;17.75;60.19;99268.64;213851;1276;139539;-65
2022/06/21 09:17:30;;;;;;;1.20;1.10;;;;;;;17.83;60.78;99264.05;213174;1276;139798;-65
2022/06/21 09:22:46;;;;;;;2.20;1.50;;;;;;;18.34;61.01;99266.06;213795;1276;139869;-66
2022/06/21 09:27:59;;;;;;;3.40;1.50;;;;;;;18.09;59.71;99264.00;214987;1276;140142;-66
2022/06/21 09:33:17;;;;;;;1.20;1.10;;;;;;;18.02;59.63;99258.04;213479;1277;140404;-66
2022/06/21 09:38:40;;;;;;;1.60;0.90;;;;;;;17.89;59.21;99266.02;215470;1276;139993;-65
2022/06/21 09:43:54;;;;;;;3.20;1.10;;;;;;;17.64;59.05;99265.80;214653;1276;139622;-64
2022/06/21 09:49:03;;;;;;;0.90;0.90;;;;;;;17.76;58.82;99259.69;215020;1277;140665;-65
2022/06/21 09:54:29;;;;;;;0.80;0.80;;;;;;;18.08;58.87;99263.86;215093;1276;140578;-65
2022/06/21 09:59:55;;;;;;;3.70;1.50;;;;;;;18.49;58.13;99250.81;215902;1277;139946;-65
2022/06/21 10:05:19;;;;;;;0.90;0.80;;;;;;;18.28;57.79;99258.95;213980;1277;139765;-64
2022/06/21 10:10:49;;;;;;;0.80;0.70;;;;;;;18.91;57.83;99253.93;215760;1276;140243;-66
2022/06/21 10:16:04;;;;;;;1.30;1.20;;;;;;;18.80;56.65;99256.96;213643;1277;140758;-64
2022/06/21 10:21:47;;;;;;;5.60;1.50;;;;;;;18.29;56.27;99255.78;215846;1277;141949;-66
2022/06/21 10:27:25;;;;;;;4.30;0.90;;;;;;;17.98;56.31;99260.11;214021;1277;140954;-65
2022/06/21 10:32:49;;;;;;;1.30;1.00;;;;;;;18.35;56.97;99256.27;213449;1277;140486;-67
2022/06/21 10:38:04;;;;;;;1.10;1.10;;;;;;;19.12;56.83;99250.59;215894;1276;141067;-66
2022/06/21 10:43:26;;;;;;;5.60;1.50;;;;;;;18.77;55.78;99269.51;213773;1277;141461;-66
2022/06/21 10:49:03;;;;;;;2.10;1.00;;;;;;;19.32;56.55;99273.68;213703;1277;140137;-66
2022/06/21 10:54:41;;;;;;;2.50;0.90;;;;;;;20.28;56.07;99267.32;214464;1276;141449;-66
2022/06/21 11:06:02;;;;;;;1.40;1.00;;;;;;;20.34;54.61;99283.73;214327;1276;234261;-64
2022/06/21 11:11:19;;;;;;;3.50;1.40;;;;;;;19.87;53.60;99298.04;213534;1277;141728;-65
2022/06/21 11:16:59;;;;;;;2.30;1.40;;;;;;;19.19;53.29;99307.43;213697;1277;140230;-64
2022/06/21 11:22:31;;;;;;;2.50;1.40;;;;;;;18.66;53.55;99304.20;213548;1277;142161;-65
2022/06/21 11:28:01;;;;;;;1.10;1.00;;;;;;;18.22;54.05;99312.02;214736;1276;141624;-64
2022/06/21 11:33:32;;;;;;;5.10;1.50;;;;;;;18.02;54.41;99310.95;213608;1276;141562;-63
2022/06/21 11:38:56;;;;;;;0.60;0.60;;;;;;;18.30;54.76;99304.40;213918;1276;163211;-64
2022/06/21 11:44:36;;;;;;;1.60;0.90;;;;;;;18.40;54.77;99305.98;215063;1276;141261;-64
2022/06/21 11:50:05;;;;;;;3.70;1.00;;;;;;;18.58;54.94;99310.66;213850;1276;141620;-65
2022/06/21 11:55:37;;;;;;;2.40;1.00;;;;;;;19.09;55.49;99309.10;213743;1276;141800;-65
2022/06/21 12:01:01;;;;;;;1.90;1.10;;;;;;;19.74;55.16;99302.17;215710;1276;141079;-65
2022/06/21 12:06:13;;;;;;;8.00;1.90;;;;;;;19.86;54.03;99295.79;215929;1276;139827;-65
2022/06/21 12:11:42;;;;;;;1.80;1.30;;;;;;;19.95;53.66;99287.02;215709;1276;140702;-64
2022/06/21 12:17:20;;;;;;;4.00;0.90;;;;;;;19.89;53.41;99295.61;215430;1277;141253;-64
2022/06/21 12:22:40;;;;;;;4.10;0.80;;;;;;;19.60;53.11;99302.21;214749;1276;141136;-65
2022/06/21 12:27:44;;;;;;;4.40;1.90;;;;;;;19.22;53.49;99314.46;214456;1276;141431;-66
2022/06/21 12:32:50;;;;;;;2.50;1.20;;;;;;;18.67;54.55;99328.38;214472;1276;141331;-65
2022/06/21 12:37:55;;;;;;;1.60;0.70;;;;;;;18.64;56.09;99339.77;214929;1276;140643;-66
2022/06/21 12:43:27;;;;;;;0.90;0.90;;;;;;;19.14;57.06;99336.02;214425;1277;142642;-65
2022/06/21 12:48:44;;;;;;;1.20;1.10;;;;;;;19.53;56.92;99322.81;214150;1276;142777;-65
2022/06/21 12:54:11;;;;;;;3.60;0.90;;;;;;;19.92;56.36;99313.02;214943;1276;141727;-65
2022/06/21 12:59:45;;;;;;;1.90;1.10;;;;;;;19.85;54.91;99314.27;214050;1276;140667;-66
2022/06/21 13:04:51;;;;;;;1.40;0.80;;;;;;;19.44;54.25;99318.67;214651;1276;142065;-65
2022/06/21 13:10:15;;;;;;;1.40;0.90;;;;;;;19.19;54.31;99320.70;214125;1276;206612;-65
2022/06/21 13:15:42;;;;;;;4.20;1.20;;;;;;;19.13;54.59;99320.00;213353;1276;140962;-66
2022/06/21 13:21:00;;;;;;;1.40;0.80;;;;;;;19.49;54.71;99310.83;214534;1276;140842;-66
2022/06/21 13:26:29;;;;;;;1.60;1.10;;;;;;;19.66;54.41;99302.52;214217;1276;140911;-66
2022/06/21 13:31:46;;;;;;;1.70;0.90;;;;;;;19.43;53.70;99307.12;214338;1276;140953;-67
2022/06/21 13:36:54;;;;;;;1.10;1.10;;;;;;;19.18;53.60;99309.91;214675;1276;139865;-67
2022/06/21 13:42:38;;;;;;;5.20;1.40;;;;;;;19.02;53.86;99308.92;214973;1276;140242;-67
2022/06/21 13:47:56;;;;;;;1.30;1.00;;;;;;;19.29;54.44;99308.81;214598;1276;140092;-67
2022/06/21 13:53:18;;;;;;;2.30;1.10;;;;;;;19.56;54.13;99308.20;215871;1276;142203;-68
2022/06/21 13:58:37;;;;;;;0.80;0.60;;;;;;;19.68;53.08;99299.29;215644;1276;141044;-67
2022/06/21 14:04:02;;;;;;;3.00;1.10;;;;;;;19.77;52.73;99297.40;215919;1276;139981;-67
2022/06/21 14:09:35;;;;;;;11.60;1.40;;;;;;;19.65;52.61;99292.52;215923;1276;140652;-67
2022/06/21 14:14:56;;;;;;;0.60;0.60;;;;;;;19.79;52.93;99292.61;214744;1276;1151446;-66
2022/06/21 14:20:40;;;;;;;11.10;1.00;;;;;;;19.99;52.54;99289.52;215238;1276;140446;-67
2022/06/21 14:26:07;;;;;;;1.20;0.90;;;;;;;20.00;52.10;99296.59;214255;1276;140566;-67
2022/06/21 14:32:02;;;;;;;4.20;1.10;;;;;;;19.94;51.75;99302.09;214737;1277;141332;-67
2022/06/21 14:37:24;;;;;;;0.70;0.60;;;;;;;19.48;51.34;99325.98;214023;1276;140490;-67
2022/06/21 14:43:00;;;;;;;0.60;0.60;;;;;;;18.84;51.65;99332.77;213933;1276;141240;-67
2022/06/21 14:48:27;;;;;;;1.40;1.00;;;;;;;18.46;52.33;99324.80;214461;1276;163476;-67
2022/06/21 14:53:34;;;;;;;3.40;0.80;;;;;;;18.10;52.85;99326.41;213981;1276;140092;-69
2022/06/21 14:59:09;;;;;;;2.20;0.90;;;;;;;17.78;53.80;99337.25;214553;1276;140196;-65
2022/06/21 15:04:52;;;;;;;;;;;;;;;17.58;54.83;99337.41;213674;1276;141354;-68
2022/06/21 15:10:21;;;;;;;0.80;0.80;;;;;;;17.49;55.66;99339.07;213952;1276;126383;-66
2022/06/21 15:15:32;;;;;;;1.80;1.00;;;;;;;17.43;55.89;99338.17;213176;1276;139791;-65
2022/06/21 15:20:46;;;;;;;3.00;0.70;;;;;;;17.27;56.22;99339.25;213950;1276;140288;-67
2022/06/21 15:26:03;;;;;;;0.80;0.60;;;;;;;17.12;56.90;99351.77;213991;1276;139952;-65
2022/06/21 15:31:13;;;;;;;0.60;0.60;;;;;;;17.08;57.47;99353.76;214432;1276;140341;-66
2022/06/21 15:36:21;;;;;;;2.30;0.80;;;;;;;17.26;57.92;99351.59;213516;1276;140255;-65
2022/06/21 15:41:38;;;;;;;0.60;0.60;;;;;;;17.51;57.87;99353.92;214388;1276;141888;-63
2022/06/21 15:50:12;;;;;;;2.60;1.10;;;;;;;17.80;58.14;99354.91;213604;1276;139784;-63
2022/06/21 15:52:22;;;;;;;0.70;0.70;;;;;;;18.01;58.14;99357.25;214928;1276;141419;-65
2022/06/21 15:57:37;;;;;;;1.50;1.10;;;;;;;18.31;58.12;99354.19;215620;1276;140202;-65
2022/06/21 16:02:44;;;;;;;3.30;0.80;;;;;;;18.38;57.78;99353.15;215720;1276;208325;-66
2022/06/21 16:07:55;;;;;;;1.10;0.90;;;;;;;18.26;57.54;99348.84;215739;1276;140709;-66
2022/06/21 16:13:13;;;;;;;0.90;0.90;;;;;;;18.06;57.43;99347.19;215682;1276;140336;-66
2022/06/21 16:18:24;;;;;;;1.20;1.20;;;;;;;18.00;57.95;99346.21;215719;1276;140535;-66
2022/06/21 16:23:42;;;;;;;4.50;3.40;;;;;;;18.04;58.46;99339.56;215684;1276;140942;-66
2022/06/21 16:29:19;;;;;;;3.70;3.40;;;;;;;18.00;58.26;99331.97;215578;1274;141851;-66
2022/06/21 16:34:41;;;;;;;1.40;1.30;;;;;;;18.13;58.23;99329.66;213470;1276;141622;-66
2022/06/21 16:42:54;;;;;;;2.10;1.60;;;;;;;18.14;58.43;99331.36;215606;1276;141596;-65
2022/06/21 16:45:59;;;;;;;2.70;1.10;;;;;;;18.07;59.12;99336.33;214217;1276;140297;-66
2022/06/21 16:51:15;;;;;;;1.30;1.00;;;;;;;18.07;59.63;99327.46;214413;1276;141146;-66
2022/06/21 16:56:26;;;;;;;1.50;0.60;;;;;;;18.08;59.90;99325.52;212792;1276;141090;-63
2022/06/21 17:01:43;;;;;;;2.50;1.10;;;;;;;18.07;60.49;99327.52;213840;1276;142618;-65
2022/06/21 17:06:59;;;;;;;7.30;1.50;;;;;;;18.10;61.05;99337.09;214486;1276;142117;-64
2022/06/21 17:12:09;;;;;;;1.00;1.00;;;;;;;18.13;61.09;99341.42;212823;1276;139658;-65
2022/06/21 17:17:21;;;;;;;1.00;0.90;;;;;;;18.08;61.24;99338.41;213386;1276;140962;-65
2022/06/21 17:22:37;;;;;;;3.40;1.50;;;;;;;17.98;61.86;99337.30;214007;1276;139959;-65
2022/06/21 17:27:45;;;;;;;;;;;;;;;17.83;62.09;99340.02;213827;1276;140455;-66
2022/06/21 17:32:57;;;;;;;1.20;1.10;;;;;;;17.66;62.56;99331.05;214701;1276;128799;-65
2022/06/21 17:38:27;;;;;;;2.00;1.60;;;;;;;17.52;62.72;99332.99;213632;1276;140597;-65
2022/06/21 17:43:47;;;;;;;2.10;1.10;;;;;;;17.48;63.10;99331.11;212981;1277;140168;-65
2022/06/21 17:49:02;;;;;;;11.30;2.30;;;;;;;17.47;63.76;99326.27;214164;1276;141689;-66
2022/06/21 17:54:20;;;;;;;2.40;1.30;;;;;;;17.47;64.20;99322.59;214248;1276;142116;-65
2022/06/21 17:59:31;;;;;;;1.30;1.20;;;;;;;17.54;64.50;99318.79;214674;1276;140730;-65
2022/06/21 18:04:40;;;;;;;3.50;1.50;;;;;;;17.59;64.68;99316.58;213839;1276;140256;-66
2022/06/21 18:10:03;;;;;;;2.20;1.30;;;;;;;17.66;64.64;99319.52;214872;1276;140124;-65
2022/06/21 18:15:08;;;;;;;5.50;2.30;;;;;;;17.72;64.32;99317.34;214211;1276;140179;-65
2022/06/21 18:20:12;;;;;;;5.70;2.20;;;;;;;17.73;64.33;99311.16;215622;1276;141383;-66
2022/06/21 18:25:38;;;;;;;2.40;1.80;;;;;;;17.73;64.36;99312.40;215840;1276;140677;-65
2022/06/21 18:31:02;;;;;;;3.40;1.90;;;;;;;17.70;64.12;99311.51;215499;1276;140184;-65
2022/06/21 18:36:18;;;;;;;2.00;1.80;;;;;;;17.63;64.32;99314.10;214784;1276;140695;-66
2022/06/21 18:41:53;;;;;;;;;;;;;;;17.44;64.20;99322.42;213811;1276;140788;-66
2022/06/21 18:47:49;;;;;;;2.40;1.30;;;;;;;17.18;64.50;99326.27;213906;1276;126309;-65
2022/06/21 18:53:10;;;;;;;1.40;1.30;;;;;;;16.93;64.94;99327.25;214432;1276;151633;-66
2022/06/21 18:58:22;;;;;;;1.30;1.20;;;;;;;16.73;65.27;99325.42;215003;1276;141120;-65
2022/06/21 19:04:14;;;;;;;1.80;1.50;;;;;;;16.56;65.50;99334.01;214510;1276;143195;-64
2022/06/21 19:09:58;;;;;;;1.70;1.60;;;;;;;16.34;65.47;99330.92;214074;1276;140841;-64
2022/06/21 19:15:24;;;;;;;2.00;1.80;;;;;;;16.10;65.75;99337.52;213127;1276;141315;-64
2022/06/21 19:20:45;;;;;;;11.30;1.90;;;;;;;15.88;66.01;99343.96;213426;1276;139737;-64
2022/06/21 19:26:26;;;;;;;2.70;1.40;;;;;;;15.70;66.25;99351.16;214441;1276;141227;-64
2022/06/21 19:32:02;;;;;;;1.80;1.70;;;;;;;15.55;66.52;99356.39;213929;1276;140304;-63
2022/06/21 19:37:44;;;;;;;2.10;2.00;;;;;;;15.40;66.54;99368.09;214122;1276;140637;-65
2022/06/21 19:42:57;;;;;;;2.40;1.80;;;;;;;15.24;66.87;99375.48;214253;1276;140195;-65
2022/06/21 19:48:31;;;;;;;2.60;2.00;;;;;;;15.11;67.26;99372.88;212814;1276;140145;-65
2022/06/21 19:53:37;;;;;;;1.10;1.10;;;;;;;15.01;67.55;99379.29;215037;1276;141428;-65
2022/06/21 19:58:47;;;;;;;1.90;1.30;;;;;;;14.87;67.78;99378.36;213869;1276;141183;-64
2022/06/21 20:04:02;;;;;;;1.60;1.50;;;;;;;14.82;68.28;99384.33;215302;1276;220613;-64
2022/06/21 20:09:36;;;;;;;4.00;1.70;;;;;;;14.72;68.26;99390.93;214401;1276;139909;-66
2022/06/21 20:14:51;;;;;;;2.40;1.40;;;;;;;14.56;67.99;99384.14;214408;1276;141448;-65
2022/06/21 20:20:17;;;;;;;2.70;1.60;;;;;;;14.39;68.12;99383.95;215988;1276;140440;-65
2022/06/21 20:25:39;;;;;;;3.80;2.10;;;;;;;14.35;68.70;99389.70;215878;1276;142112;-67
2022/06/21 20:31:04;;;;;;;2.80;2.10;;;;;;;14.39;68.61;99391.23;215837;1276;141838;-65
2022/06/21 20:36:11;;;;;;;2.40;2.20;;;;;;;14.42;68.64;99390.46;216069;1276;140705;-65
2022/06/21 20:41:35;;;;;;;3.60;2.20;;;;;;;14.42;68.30;99386.91;215953;1276;142990;-66
2022/06/21 20:46:57;;;;;;;3.90;1.90;;;;;;;14.39;68.24;99385.06;215628;1276;140991;-65
2022/06/21 20:52:29;;;;;;;2.20;1.30;;;;;;;14.39;68.38;99398.68;214605;1276;141429;-65
2022/06/21 20:57:50;;;;;;;3.60;2.30;;;;;;;14.41;68.05;99406.36;214602;1276;140999;-64
2022/06/21 21:03:04;;;;;;;2.30;1.50;;;;;;;14.40;67.80;99411.67;213948;1274;232466;-64
2022/06/21 21:08:29;;;;;;;2.20;2.00;;;;;;;14.38;67.69;99414.08;214118;1276;140374;-64
2022/06/21 21:13:45;;;;;;;1.60;1.30;;;;;;;14.28;67.51;99425.72;213531;1277;234890;-62
2022/06/21 21:19:04;;;;;;;3.70;1.50;;;;;;;14.17;67.61;99428.59;213967;1275;151926;-65
2022/06/21 21:24:11;;;;;;;6.20;1.80;;;;;;;14.13;67.71;99424.18;213293;1276;141115;-64
2022/06/21 21:29:17;;;;;;;3.00;1.50;;;;;;;14.09;67.77;99432.54;214087;1275;140420;-64
2022/06/21 21:34:35;;;;;;;2.20;1.70;;;;;;;14.00;67.90;99429.95;213782;1277;140935;-63
2022/06/21 21:40:15;;;;;;;2.80;1.80;;;;;;;13.92;67.97;99426.34;213471;1275;141685;-65
2022/06/21 21:45:22;;;;;;;2.00;1.60;;;;;;;13.82;67.88;99434.98;213565;1276;141748;-64
2022/06/21 21:50:32;;;;;;;1.80;1.40;;;;;;;13.71;68.01;99440.20;212798;1276;142451;-66
2022/06/21 21:55:36;;;;;;;2.40;1.30;;;;;;;13.58;68.00;99437.58;213703;1276;141602;-64
2022/06/21 22:00:50;;;;;;;1.20;1.10;;;;;;;13.43;68.14;99435.95;214726;1274;140634;-66
2022/06/21 22:06:15;;;;;;;4.40;2.10;;;;;;;13.26;68.27;99441.05;214845;1276;139549;-65
2022/06/21 22:11:33;;;;;;;1.80;1.70;;;;;;;13.08;68.52;99432.10;214153;1276;139846;-64
2022/06/21 22:16:52;;;;;;;3.30;2.10;;;;;;;13.00;68.88;99434.81;215694;1276;142421;-66
2022/06/21 22:21:57;;;;;;;7.60;2.10;;;;;;;12.93;69.08;99433.59;215516;1276;141201;-66
2022/06/21 22:27:25;;;;;;;2.50;1.80;;;;;;;12.86;69.09;99433.80;215813;1277;141782;-67
2022/06/21 22:32:31;;;;;;;3.70;1.20;;;;;;;12.74;68.90;99440.05;216048;1276;141095;-66
2022/06/21 22:37:43;;;;;;;3.30;1.90;;;;;;;12.60;69.13;99442.69;215623;1276;141981;-66
2022/06/21 22:42:53;;;;;;;2.30;2.00;;;;;;;12.49;69.25;99443.73;214805;1276;142547;-62
2022/06/21 22:48:06;;;;;;;3.40;1.70;;;;;;;12.40;69.43;99444.24;215021;1276;141016;-64
2022/06/21 22:53:30;;;;;;;1.40;1.40;;;;;;;12.35;69.69;99445.31;214462;1276;139304;-66
2022/06/21 22:58:39;;;;;;;2.30;1.80;;;;;;;12.32;69.92;99447.95;214401;1276;140070;-65
2022/06/21 23:03:47;;;;;;;6.50;1.80;;;;;;;12.30;70.45;99452.48;213970;1276;142521;-65
2022/06/21 23:08:55;;;;;;;4.50;1.40;;;;;;;12.27;70.57;99450.84;213816;1276;164545;-66
2022/06/21 23:14:02;;;;;;;1.30;1.10;;;;;;;12.17;70.30;99447.02;213406;1276;141820;-65
2022/06/21 23:19:21;;;;;;;1.80;1.70;;;;;;;12.06;70.51;99448.29;213066;1277;140618;-64
2022/06/21 23:24:27;;;;;;;2.70;1.50;;;;;;;11.95;70.44;99448.05;213995;1276;140506;-66
2022/06/21 23:30:01;;;;;;;2.90;1.80;;;;;;;11.87;70.84;99452.09;213975;1277;141119;-65
2022/06/21 23:35:10;;;;;;;1.70;1.60;;;;;;;11.73;70.72;99460.28;213531;1276;139709;-66
2022/06/21 23:40:18;;;;;;;5.00;2.10;;;;;;;11.60;70.99;99464.97;214341;1276;142750;-66
2022/06/21 23:45:35;;;;;;;1.70;1.60;;;;;;;11.52;71.24;99465.42;214002;1276;142580;-66
2022/06/21 23:50:41;;;;;;;2.10;1.90;;;;;;;11.51;71.43;99464.55;213911;1276;140370;-64
2022/06/21 23:55:51;;;;;;;2.10;2.00;;;;;;;11.47;71.82;99468.55;213320;1276;140872;-64
